sensor_id;sensor_type;location;lat;lon;timestamp;temperature;humidity
17938;DHT22;16051;53.024;8.630;2023-02-22T00:00:41;10.10;99.90
17938;DHT22;16051;53.024;8.630;2023-02-22T00:04:43;10.10;99.90
17938;DHT22;16051;53.024;8.630;2023-02-22T00:08:47;10.10;99.90
17938;DHT22;16051;53.024;8.630;2023-02-22T00:12:51;10.10;99.90
17938;DHT22;16051;53.024;8.630;2023-02-22T00:16:55;10.10;99.90
17938;DHT22;16051;53.024;8.630;2023-02-22T00:20:59;10.10;99.90
17938;DHT22;16051;53.024;8.630;2023-02-22T00:25:02;10.10;99.90
17938;DHT22;16051;53.024;8.630;2023-02-22T00:29:04;10.10;99.90
17938;DHT22;16051;53.024;8.630;2023-02-22T00:33:11;10.10;99.90
17938;DHT22;16051;53.024;8.630;2023-02-22T00:37:13;10.00;99.90
17938;DHT22;16051;53.024;8.630;2023-02-22T00:41:15;10.00;99.90
17938;DHT22;16051;53.024;8.630;2023-02-22T00:45:19;10.00;99.90
17938;DHT22;16051;53.024;8.630;2023-02-22T00:49:23;10.00;99.90
17938;DHT22;16051;53.024;8.630;2023-02-22T00:53:33;10.00;99.90
17938;DHT22;16051;53.024;8.630;2023-02-22T00:57:36;10.00;99.90
17938;DHT22;16051;53.024;8.630;2023-02-22T01:01:39;10.00;99.90
17938;DHT22;16051;53.024;8.630;2023-02-22T01:05:43;10.00;99.90
17938;DHT22;16051;53.024;8.630;2023-02-22T01:10:00;9.90;99.90
17938;DHT22;16051;53.024;8.630;2023-02-22T01:14:03;9.90;99.90
17938;DHT22;16051;53.024;8.630;2023-02-22T01:18:09;9.90;99.90
17938;DHT22;16051;53.024;8.630;2023-02-22T01:22:13;9.90;99.90
17938;DHT22;16051;53.024;8.630;2023-02-22T01:26:16;9.90;99.90
17938;DHT22;16051;53.024;8.630;2023-02-22T01:30:20;9.90;99.90
17938;DHT22;16051;53.024;8.630;2023-02-22T01:34:23;9.80;99.90
17938;DHT22;16051;53.024;8.630;2023-02-22T01:38:27;9.80;99.90
17938;DHT22;16051;53.024;8.630;2023-02-22T01:42:29;9.80;99.90
17938;DHT22;16051;53.024;8.630;2023-02-22T01:46:32;9.80;99.90
17938;DHT22;16051;53.024;8.630;2023-02-22T01:50:36;9.80;99.90
17938;DHT22;16051;53.024;8.630;2023-02-22T01:54:45;9.80;99.90
17938;DHT22;16051;53.024;8.630;2023-02-22T01:58:53;9.80;99.90
17938;DHT22;16051;53.024;8.630;2023-02-22T02:03:02;9.80;99.90
17938;DHT22;16051;53.024;8.630;2023-02-22T02:07:11;9.80;99.90
17938;DHT22;16051;53.024;8.630;2023-02-22T02:11:19;9.80;99.90
17938;DHT22;16051;53.024;8.630;2023-02-22T02:15:27;9.80;99.90
17938;DHT22;16051;53.024;8.630;2023-02-22T02:19:38;9.80;99.90
17938;DHT22;16051;53.024;8.630;2023-02-22T02:24:09;9.80;99.90
17938;DHT22;16051;53.024;8.630;2023-02-22T02:33:34;9.70;99.90
17938;DHT22;16051;53.024;8.630;2023-02-22T02:37:49;9.70;99.90
17938;DHT22;16051;53.024;8.630;2023-02-22T02:42:07;9.70;99.90
17938;DHT22;16051;53.024;8.630;2023-02-22T02:46:31;9.70;99.90
17938;DHT22;16051;53.024;8.630;2023-02-22T02:50:41;9.60;99.90
17938;DHT22;16051;53.024;8.630;2023-02-22T02:54:47;9.70;99.90
17938;DHT22;16051;53.024;8.630;2023-02-22T02:58:52;9.60;99.90
17938;DHT22;16051;53.024;8.630;2023-02-22T03:03:06;9.60;99.90
17938;DHT22;16051;53.024;8.630;2023-02-22T03:07:32;9.60;99.90
17938;DHT22;16051;53.024;8.630;2023-02-22T03:11:52;9.60;99.90
17938;DHT22;16051;53.024;8.630;2023-02-22T03:16:14;9.60;99.90
17938;DHT22;16051;53.024;8.630;2023-02-22T03:20:26;9.60;99.90
17938;DHT22;16051;53.024;8.630;2023-02-22T03:24:38;9.60;99.90
17938;DHT22;16051;53.024;8.630;2023-02-22T03:28:53;9.50;99.90
17938;DHT22;16051;53.024;8.630;2023-02-22T03:33:02;9.50;99.90
17938;DHT22;16051;53.024;8.630;2023-02-22T03:37:13;9.50;99.90
17938;DHT22;16051;53.024;8.630;2023-02-22T03:41:22;9.50;99.90
17938;DHT22;16051;53.024;8.630;2023-02-22T03:45:27;9.50;99.90
17938;DHT22;16051;53.024;8.630;2023-02-22T03:49:33;9.50;99.90
17938;DHT22;16051;53.024;8.630;2023-02-22T03:53:38;9.50;99.90
17938;DHT22;16051;53.024;8.630;2023-02-22T03:57:44;9.50;99.90
17938;DHT22;16051;53.024;8.630;2023-02-22T04:01:48;9.40;99.90
17938;DHT22;16051;53.024;8.630;2023-02-22T04:06:25;9.40;99.90
17938;DHT22;16051;53.024;8.630;2023-02-22T04:10:28;9.30;99.90
17938;DHT22;16051;53.024;8.630;2023-02-22T04:14:32;9.20;99.90
17938;DHT22;16051;53.024;8.630;2023-02-22T04:18:34;9.20;99.90
17938;DHT22;16051;53.024;8.630;2023-02-22T04:22:37;9.10;99.90
17938;DHT22;16051;53.024;8.630;2023-02-22T04:26:39;9.00;99.90
17938;DHT22;16051;53.024;8.630;2023-02-22T04:30:44;8.90;99.90
17938;DHT22;16051;53.024;8.630;2023-02-22T04:34:46;8.80;99.90
17938;DHT22;16051;53.024;8.630;2023-02-22T04:38:48;8.70;99.90
17938;DHT22;16051;53.024;8.630;2023-02-22T04:42:50;8.70;99.90
17938;DHT22;16051;53.024;8.630;2023-02-22T04:46:54;8.60;99.90
17938;DHT22;16051;53.024;8.630;2023-02-22T04:50:57;8.60;99.90
17938;DHT22;16051;53.024;8.630;2023-02-22T04:54:59;8.60;99.90
17938;DHT22;16051;53.024;8.630;2023-02-22T04:59:01;8.60;99.90
17938;DHT22;16051;53.024;8.630;2023-02-22T05:03:05;8.60;99.90
17938;DHT22;16051;53.024;8.630;2023-02-22T05:07:08;8.60;99.90
17938;DHT22;16051;53.024;8.630;2023-02-22T05:11:10;8.60;99.90
17938;DHT22;16051;53.024;8.630;2023-02-22T05:15:16;8.60;99.90
17938;DHT22;16051;53.024;8.630;2023-02-22T05:19:23;8.60;99.90
17938;DHT22;16051;53.024;8.630;2023-02-22T05:23:25;8.60;99.90
17938;DHT22;16051;53.024;8.630;2023-02-22T05:27:28;8.70;99.90
17938;DHT22;16051;53.024;8.630;2023-02-22T05:31:30;8.60;99.90
17938;DHT22;16051;53.024;8.630;2023-02-22T05:35:33;8.70;99.90
17938;DHT22;16051;53.024;8.630;2023-02-22T05:39:38;8.70;99.90
17938;DHT22;16051;53.024;8.630;2023-02-22T05:43:40;8.60;99.90
17938;DHT22;16051;53.024;8.630;2023-02-22T05:47:43;8.70;99.90
17938;DHT22;16051;53.024;8.630;2023-02-22T05:51:53;8.60;99.90
17938;DHT22;16051;53.024;8.630;2023-02-22T05:55:59;8.60;99.90
17938;DHT22;16051;53.024;8.630;2023-02-22T06:00:02;8.60;99.90
17938;DHT22;16051;53.024;8.630;2023-02-22T06:04:06;8.60;99.90
17938;DHT22;16051;53.024;8.630;2023-02-22T06:08:10;8.60;99.90
17938;DHT22;16051;53.024;8.630;2023-02-22T06:12:12;8.60;99.90
17938;DHT22;16051;53.024;8.630;2023-02-22T06:16:24;8.60;99.90
17938;DHT22;16051;53.024;8.630;2023-02-22T06:20:28;8.60;99.90
17938;DHT22;16051;53.024;8.630;2023-02-22T06:24:32;8.60;99.90
17938;DHT22;16051;53.024;8.630;2023-02-22T06:28:40;8.50;99.90
17938;DHT22;16051;53.024;8.630;2023-02-22T06:32:42;8.50;99.90
17938;DHT22;16051;53.024;8.630;2023-02-22T06:36:44;8.50;99.90
17938;DHT22;16051;53.024;8.630;2023-02-22T06:40:49;8.50;99.90
17938;DHT22;16051;53.024;8.630;2023-02-22T06:44:51;8.50;99.90
17938;DHT22;16051;53.024;8.630;2023-02-22T06:48:53;8.50;99.90
17938;DHT22;16051;53.024;8.630;2023-02-22T06:53:04;8.50;99.90
17938;DHT22;16051;53.024;8.630;2023-02-22T06:57:08;8.50;99.90
17938;DHT22;16051;53.024;8.630;2023-02-22T07:01:11;8.50;99.90
17938;DHT22;16051;53.024;8.630;2023-02-22T07:05:15;8.50;99.90
17938;DHT22;16051;53.024;8.630;2023-02-22T07:09:19;8.60;99.90
17938;DHT22;16051;53.024;8.630;2023-02-22T07:13:26;8.60;99.90
17938;DHT22;16051;53.024;8.630;2023-02-22T07:17:29;8.70;99.90
17938;DHT22;16051;53.024;8.630;2023-02-22T07:21:31;8.70;99.90
17938;DHT22;16051;53.024;8.630;2023-02-22T07:25:34;8.80;99.90
17938;DHT22;16051;53.024;8.630;2023-02-22T07:29:37;8.80;99.90
17938;DHT22;16051;53.024;8.630;2023-02-22T07:33:40;8.90;99.90
17938;DHT22;16051;53.024;8.630;2023-02-22T07:37:42;8.90;99.90
17938;DHT22;16051;53.024;8.630;2023-02-22T07:41:44;9.00;99.90
17938;DHT22;16051;53.024;8.630;2023-02-22T07:45:49;9.10;99.90
17938;DHT22;16051;53.024;8.630;2023-02-22T07:49:53;9.20;99.90
17938;DHT22;16051;53.024;8.630;2023-02-22T07:53:55;9.20;99.90
17938;DHT22;16051;53.024;8.630;2023-02-22T07:58:06;9.40;99.90
17938;DHT22;16051;53.024;8.630;2023-02-22T08:02:14;10.40;99.90
17938;DHT22;16051;53.024;8.630;2023-02-22T08:06:17;10.30;99.90
17938;DHT22;16051;53.024;8.630;2023-02-22T08:10:22;10.00;99.90
17938;DHT22;16051;53.024;8.630;2023-02-22T08:14:25;9.90;99.90
17938;DHT22;16051;53.024;8.630;2023-02-22T08:18:28;9.80;99.90
17938;DHT22;16051;53.024;8.630;2023-02-22T08:22:37;9.80;99.90
17938;DHT22;16051;53.024;8.630;2023-02-22T08:26:43;9.70;99.90
17938;DHT22;16051;53.024;8.630;2023-02-22T08:30:46;9.80;99.90
17938;DHT22;16051;53.024;8.630;2023-02-22T08:34:50;9.80;99.90
17938;DHT22;16051;53.024;8.630;2023-02-22T08:38:52;9.80;99.90
17938;DHT22;16051;53.024;8.630;2023-02-22T08:42:54;9.90;99.90
17938;DHT22;16051;53.024;8.630;2023-02-22T08:46:57;9.90;99.90
17938;DHT22;16051;53.024;8.630;2023-02-22T08:51:00;10.00;99.90
17938;DHT22;16051;53.024;8.630;2023-02-22T08:55:03;10.10;99.90
17938;DHT22;16051;53.024;8.630;2023-02-22T08:59:08;10.10;99.90
17938;DHT22;16051;53.024;8.630;2023-02-22T09:03:12;10.20;99.90
17938;DHT22;16051;53.024;8.630;2023-02-22T09:07:17;10.30;99.90
17938;DHT22;16051;53.024;8.630;2023-02-22T09:11:19;10.40;99.90
17938;DHT22;16051;53.024;8.630;2023-02-22T09:15:41;10.60;99.90
17938;DHT22;16051;53.024;8.630;2023-02-22T09:24:13;11.00;99.90
17938;DHT22;16051;53.024;8.630;2023-02-22T09:28:15;11.10;99.90
17938;DHT22;16051;53.024;8.630;2023-02-22T09:32:18;11.40;99.90
17938;DHT22;16051;53.024;8.630;2023-02-22T09:36:20;11.60;99.90
17938;DHT22;16051;53.024;8.630;2023-02-22T09:40:24;11.70;99.90
17938;DHT22;16051;53.024;8.630;2023-02-22T09:44:35;11.80;99.90
17938;DHT22;16051;53.024;8.630;2023-02-22T09:49:06;12.10;99.90
17938;DHT22;16051;53.024;8.630;2023-02-22T09:53:23;12.30;99.90
17938;DHT22;16051;53.024;8.630;2023-02-22T09:57:42;12.60;99.90
17938;DHT22;16051;53.024;8.630;2023-02-22T10:01:48;12.80;99.90
17938;DHT22;16051;53.024;8.630;2023-02-22T10:06:01;12.90;99.90
17938;DHT22;16051;53.024;8.630;2023-02-22T10:10:14;12.80;99.90
17938;DHT22;16051;53.024;8.630;2023-02-22T10:14:42;12.80;99.90
17938;DHT22;16051;53.024;8.630;2023-02-22T10:19:07;12.80;99.90
17938;DHT22;16051;53.024;8.630;2023-02-22T10:23:28;13.10;99.90
17938;DHT22;16051;53.024;8.630;2023-02-22T10:27:57;13.30;99.90
17938;DHT22;16051;53.024;8.630;2023-02-22T10:32:09;13.50;99.90
17938;DHT22;16051;53.024;8.630;2023-02-22T10:36:19;13.90;99.90
17938;DHT22;16051;53.024;8.630;2023-02-22T10:40:24;13.90;99.90
17938;DHT22;16051;53.024;8.630;2023-02-22T10:44:32;14.30;99.90
17938;DHT22;16051;53.024;8.630;2023-02-22T10:48:38;14.60;99.90
17938;DHT22;16051;53.024;8.630;2023-02-22T10:52:49;15.10;99.90
17938;DHT22;16051;53.024;8.630;2023-02-22T10:56:52;15.50;99.90
17938;DHT22;16051;53.024;8.630;2023-02-22T11:00:55;15.90;99.90
17938;DHT22;16051;53.024;8.630;2023-02-22T11:05:00;16.10;99.90
17938;DHT22;16051;53.024;8.630;2023-02-22T11:09:11;16.40;99.90
17938;DHT22;16051;53.024;8.630;2023-02-22T11:13:23;16.70;99.90
17938;DHT22;16051;53.024;8.630;2023-02-22T11:17:29;17.00;99.90
17938;DHT22;16051;53.024;8.630;2023-02-22T11:21:36;17.30;99.90
17938;DHT22;16051;53.024;8.630;2023-02-22T11:25:41;17.60;99.90
17938;DHT22;16051;53.024;8.630;2023-02-22T11:29:44;17.60;99.90
17938;DHT22;16051;53.024;8.630;2023-02-22T11:33:52;17.70;99.90
17938;DHT22;16051;53.024;8.630;2023-02-22T11:38:16;17.60;99.90
17938;DHT22;16051;53.024;8.630;2023-02-22T11:42:21;17.50;99.90
17938;DHT22;16051;53.024;8.630;2023-02-22T11:46:27;17.60;99.90
17938;DHT22;16051;53.024;8.630;2023-02-22T11:50:38;17.50;99.90
17938;DHT22;16051;53.024;8.630;2023-02-22T11:55:17;17.60;99.90
17938;DHT22;16051;53.024;8.630;2023-02-22T11:59:30;17.70;99.90
17938;DHT22;16051;53.024;8.630;2023-02-22T12:08:46;17.70;99.90
17938;DHT22;16051;53.024;8.630;2023-02-22T12:13:08;17.60;99.90
17938;DHT22;16051;53.024;8.630;2023-02-22T12:17:26;17.40;99.90
17938;DHT22;16051;53.024;8.630;2023-02-22T12:21:41;17.60;99.90
17938;DHT22;16051;53.024;8.630;2023-02-22T12:25:56;17.60;99.90
17938;DHT22;16051;53.024;8.630;2023-02-22T12:30:07;17.60;99.90
17938;DHT22;16051;53.024;8.630;2023-02-22T12:34:24;17.60;99.90
17938;DHT22;16051;53.024;8.630;2023-02-22T12:38:34;17.70;99.90
17938;DHT22;16051;53.024;8.630;2023-02-22T12:42:59;17.70;99.90
17938;DHT22;16051;53.024;8.630;2023-02-22T12:47:15;17.40;99.90
17938;DHT22;16051;53.024;8.630;2023-02-22T12:51:27;17.70;99.90
17938;DHT22;16051;53.024;8.630;2023-02-22T12:55:38;17.80;99.90
17938;DHT22;16051;53.024;8.630;2023-02-22T13:00:05;18.20;99.90
17938;DHT22;16051;53.024;8.630;2023-02-22T13:04:16;18.30;99.90
17938;DHT22;16051;53.024;8.630;2023-02-22T13:08:25;18.50;99.90
17938;DHT22;16051;53.024;8.630;2023-02-22T13:12:47;18.50;99.90
17938;DHT22;16051;53.024;8.630;2023-02-22T13:17:04;18.50;99.90
17938;DHT22;16051;53.024;8.630;2023-02-22T13:21:19;18.80;99.90
17938;DHT22;16051;53.024;8.630;2023-02-22T13:25:33;18.80;99.90
17938;DHT22;16051;53.024;8.630;2023-02-22T13:29:43;18.60;99.90
17938;DHT22;16051;53.024;8.630;2023-02-22T13:34:05;18.40;99.90
17938;DHT22;16051;53.024;8.630;2023-02-22T13:43:47;18.60;99.90
17938;DHT22;16051;53.024;8.630;2023-02-22T13:48:31;18.80;99.90
17938;DHT22;16051;53.024;8.630;2023-02-22T13:52:54;18.90;99.90
17938;DHT22;16051;53.024;8.630;2023-02-22T13:56:58;18.90;99.90
17938;DHT22;16051;53.024;8.630;2023-02-22T14:01:03;19.00;99.90
17938;DHT22;16051;53.024;8.630;2023-02-22T14:05:35;19.00;99.90
17938;DHT22;16051;53.024;8.630;2023-02-22T14:09:52;19.10;99.90
17938;DHT22;16051;53.024;8.630;2023-02-22T14:14:14;19.20;99.90
17938;DHT22;16051;53.024;8.630;2023-02-22T14:18:22;19.20;99.90
17938;DHT22;16051;53.024;8.630;2023-02-22T14:22:29;19.60;99.90
17938;DHT22;16051;53.024;8.630;2023-02-22T14:26:34;19.80;99.90
17938;DHT22;16051;53.024;8.630;2023-02-22T14:30:40;19.90;99.90
17938;DHT22;16051;53.024;8.630;2023-02-22T14:34:50;20.10;99.90
17938;DHT22;16051;53.024;8.630;2023-02-22T14:39:05;20.20;99.90
17938;DHT22;16051;53.024;8.630;2023-02-22T14:43:18;19.80;99.90
17938;DHT22;16051;53.024;8.630;2023-02-22T14:47:27;19.60;99.90
17938;DHT22;16051;53.024;8.630;2023-02-22T14:51:40;19.30;99.90
17938;DHT22;16051;53.024;8.630;2023-02-22T14:55:48;19.00;99.90
17938;DHT22;16051;53.024;8.630;2023-02-22T15:00:11;18.70;99.90
17938;DHT22;16051;53.024;8.630;2023-02-22T15:04:22;18.40;99.90
17938;DHT22;16051;53.024;8.630;2023-02-22T15:08:29;18.20;99.90
17938;DHT22;16051;53.024;8.630;2023-02-22T15:12:33;18.00;99.90
17938;DHT22;16051;53.024;8.630;2023-02-22T15:16:36;17.80;99.90
17938;DHT22;16051;53.024;8.630;2023-02-22T15:20:54;17.60;99.90
17938;DHT22;16051;53.024;8.630;2023-02-22T15:25:01;17.30;99.90
17938;DHT22;16051;53.024;8.630;2023-02-22T15:29:08;17.10;99.90
17938;DHT22;16051;53.024;8.630;2023-02-22T15:33:15;16.90;99.90
17938;DHT22;16051;53.024;8.630;2023-02-22T15:37:24;16.80;99.90
17938;DHT22;16051;53.024;8.630;2023-02-22T15:41:31;16.50;99.90
17938;DHT22;16051;53.024;8.630;2023-02-22T15:45:34;16.40;99.90
17938;DHT22;16051;53.024;8.630;2023-02-22T15:49:42;16.20;99.90
17938;DHT22;16051;53.024;8.630;2023-02-22T15:53:45;16.10;99.90
17938;DHT22;16051;53.024;8.630;2023-02-22T15:57:50;15.90;99.90
17938;DHT22;16051;53.024;8.630;2023-02-22T16:01:52;15.80;99.90
17938;DHT22;16051;53.024;8.630;2023-02-22T16:05:55;15.70;99.90
17938;DHT22;16051;53.024;8.630;2023-02-22T16:10:00;15.50;99.90
17938;DHT22;16051;53.024;8.630;2023-02-22T16:14:26;15.40;99.90
17938;DHT22;16051;53.024;8.630;2023-02-22T16:18:32;15.30;99.90
17938;DHT22;16051;53.024;8.630;2023-02-22T16:22:38;15.10;99.90
17938;DHT22;16051;53.024;8.630;2023-02-22T16:27:05;15.00;99.90
17938;DHT22;16051;53.024;8.630;2023-02-22T16:31:21;14.90;99.90
17938;DHT22;16051;53.024;8.630;2023-02-22T16:35:26;14.70;99.90
17938;DHT22;16051;53.024;8.630;2023-02-22T16:39:41;14.60;99.90
17938;DHT22;16051;53.024;8.630;2023-02-22T16:43:47;14.50;99.90
17938;DHT22;16051;53.024;8.630;2023-02-22T16:47:52;14.30;99.90
17938;DHT22;16051;53.024;8.630;2023-02-22T16:51:57;14.10;99.90
17938;DHT22;16051;53.024;8.630;2023-02-22T16:56:02;14.00;99.90
17938;DHT22;16051;53.024;8.630;2023-02-22T17:00:12;13.90;99.90
17938;DHT22;16051;53.024;8.630;2023-02-22T17:04:20;13.70;99.90
17938;DHT22;16051;53.024;8.630;2023-02-22T17:08:24;13.60;99.90
17938;DHT22;16051;53.024;8.630;2023-02-22T17:12:28;13.50;99.90
17938;DHT22;16051;53.024;8.630;2023-02-22T17:16:31;13.30;99.90
17938;DHT22;16051;53.024;8.630;2023-02-22T17:25:22;13.10;99.90
17938;DHT22;16051;53.024;8.630;2023-02-22T17:29:26;13.00;99.90
17938;DHT22;16051;53.024;8.630;2023-02-22T17:33:43;13.00;99.90
17938;DHT22;16051;53.024;8.630;2023-02-22T17:37:48;12.90;99.90
17938;DHT22;16051;53.024;8.630;2023-02-22T17:41:50;12.80;99.90
17938;DHT22;16051;53.024;8.630;2023-02-22T17:45:57;12.70;99.90
17938;DHT22;16051;53.024;8.630;2023-02-22T17:49:59;12.60;99.90
17938;DHT22;16051;53.024;8.630;2023-02-22T17:54:03;12.50;99.90
17938;DHT22;16051;53.024;8.630;2023-02-22T17:58:36;12.50;99.90
17938;DHT22;16051;53.024;8.630;2023-02-22T18:02:38;12.40;99.90
17938;DHT22;16051;53.024;8.630;2023-02-22T18:06:41;12.30;99.90
17938;DHT22;16051;53.024;8.630;2023-02-22T18:10:46;12.20;99.90
17938;DHT22;16051;53.024;8.630;2023-02-22T18:14:52;12.70;99.90
17938;DHT22;16051;53.024;8.630;2023-02-22T18:18:54;12.60;99.90
17938;DHT22;16051;53.024;8.630;2023-02-22T18:22:58;12.30;99.90
17938;DHT22;16051;53.024;8.630;2023-02-22T18:27:09;12.10;99.90
17938;DHT22;16051;53.024;8.630;2023-02-22T18:31:16;12.00;99.90
17938;DHT22;16051;53.024;8.630;2023-02-22T18:35:26;11.90;99.90
17938;DHT22;16051;53.024;8.630;2023-02-22T18:39:29;11.80;99.90
17938;DHT22;16051;53.024;8.630;2023-02-22T18:43:35;11.80;99.90
17938;DHT22;16051;53.024;8.630;2023-02-22T18:47:38;11.70;99.90
17938;DHT22;16051;53.024;8.630;2023-02-22T18:51:41;11.60;99.90
17938;DHT22;16051;53.024;8.630;2023-02-22T18:55:53;11.60;99.90
17938;DHT22;16051;53.024;8.630;2023-02-22T18:59:57;11.50;99.90
17938;DHT22;16051;53.024;8.630;2023-02-22T19:03:59;11.50;99.90
17938;DHT22;16051;53.024;8.630;2023-02-22T19:08:08;11.40;99.90
17938;DHT22;16051;53.024;8.630;2023-02-22T19:12:10;11.40;99.90
17938;DHT22;16051;53.024;8.630;2023-02-22T19:16:19;11.40;99.90
17938;DHT22;16051;53.024;8.630;2023-02-22T19:20:58;11.40;99.90
17938;DHT22;16051;53.024;8.630;2023-02-22T19:25:01;11.30;99.90
17938;DHT22;16051;53.024;8.630;2023-02-22T19:29:04;11.20;99.90
17938;DHT22;16051;53.024;8.630;2023-02-22T19:33:09;11.20;99.90
17938;DHT22;16051;53.024;8.630;2023-02-22T19:37:11;11.10;99.90
17938;DHT22;16051;53.024;8.630;2023-02-22T19:41:23;11.10;99.90
17938;DHT22;16051;53.024;8.630;2023-02-22T19:45:26;11.00;99.90
17938;DHT22;16051;53.024;8.630;2023-02-22T19:49:29;11.00;99.90
17938;DHT22;16051;53.024;8.630;2023-02-22T19:53:50;11.00;99.90
17938;DHT22;16051;53.024;8.630;2023-02-22T19:57:55;10.90;99.90
17938;DHT22;16051;53.024;8.630;2023-02-22T20:01:57;10.80;99.90
17938;DHT22;16051;53.024;8.630;2023-02-22T20:06:00;10.80;99.90
17938;DHT22;16051;53.024;8.630;2023-02-22T20:10:03;10.70;99.90
17938;DHT22;16051;53.024;8.630;2023-02-22T20:14:11;10.60;99.90
17938;DHT22;16051;53.024;8.630;2023-02-22T20:18:25;10.60;99.90
17938;DHT22;16051;53.024;8.630;2023-02-22T20:22:41;10.50;99.90
17938;DHT22;16051;53.024;8.630;2023-02-22T20:26:47;10.40;99.90
17938;DHT22;16051;53.024;8.630;2023-02-22T20:30:55;10.40;99.90
17938;DHT22;16051;53.024;8.630;2023-02-22T20:35:08;10.30;99.90
17938;DHT22;16051;53.024;8.630;2023-02-22T20:39:12;10.20;99.90
17938;DHT22;16051;53.024;8.630;2023-02-22T20:43:14;10.20;99.90
17938;DHT22;16051;53.024;8.630;2023-02-22T20:47:17;10.10;99.90
17938;DHT22;16051;53.024;8.630;2023-02-22T20:51:19;10.10;99.90
17938;DHT22;16051;53.024;8.630;2023-02-22T20:55:48;10.00;99.90
17938;DHT22;16051;53.024;8.630;2023-02-22T20:59:59;9.90;99.90
17938;DHT22;16051;53.024;8.630;2023-02-22T21:04:09;9.80;99.90
17938;DHT22;16051;53.024;8.630;2023-02-22T21:08:13;9.70;99.90
17938;DHT22;16051;53.024;8.630;2023-02-22T21:12:17;9.70;99.90
17938;DHT22;16051;53.024;8.630;2023-02-22T21:16:24;9.60;99.90
17938;DHT22;16051;53.024;8.630;2023-02-22T21:20:27;9.50;99.90
17938;DHT22;16051;53.024;8.630;2023-02-22T21:24:47;9.50;99.90
17938;DHT22;16051;53.024;8.630;2023-02-22T21:28:51;9.40;99.90
17938;DHT22;16051;53.024;8.630;2023-02-22T21:32:54;9.30;99.90
17938;DHT22;16051;53.024;8.630;2023-02-22T21:36:57;9.20;99.90
17938;DHT22;16051;53.024;8.630;2023-02-22T21:40:59;9.20;99.90
17938;DHT22;16051;53.024;8.630;2023-02-22T21:45:11;9.10;99.90
17938;DHT22;16051;53.024;8.630;2023-02-22T21:49:15;9.00;99.90
17938;DHT22;16051;53.024;8.630;2023-02-22T21:53:17;9.00;99.90
17938;DHT22;16051;53.024;8.630;2023-02-22T21:57:20;8.90;99.90
17938;DHT22;16051;53.024;8.630;2023-02-22T22:01:23;8.90;99.90
17938;DHT22;16051;53.024;8.630;2023-02-22T22:05:27;8.90;99.90
17938;DHT22;16051;53.024;8.630;2023-02-22T22:09:33;8.80;99.90
17938;DHT22;16051;53.024;8.630;2023-02-22T22:13:41;8.70;99.90
17938;DHT22;16051;53.024;8.630;2023-02-22T22:17:45;8.70;99.90
17938;DHT22;16051;53.024;8.630;2023-02-22T22:21:47;8.70;99.90
17938;DHT22;16051;53.024;8.630;2023-02-22T22:25:59;8.60;99.90
17938;DHT22;16051;53.024;8.630;2023-02-22T22:30:03;8.60;99.90
17938;DHT22;16051;53.024;8.630;2023-02-22T22:34:39;8.60;99.90
17938;DHT22;16051;53.024;8.630;2023-02-22T22:38:42;8.50;99.90
17938;DHT22;16051;53.024;8.630;2023-02-22T22:42:46;8.50;99.90
17938;DHT22;16051;53.024;8.630;2023-02-22T22:46:49;8.40;99.90
17938;DHT22;16051;53.024;8.630;2023-02-22T22:50:59;8.40;99.90
17938;DHT22;16051;53.024;8.630;2023-02-22T22:55:03;8.40;99.90
17938;DHT22;16051;53.024;8.630;2023-02-22T22:59:11;8.40;99.90
17938;DHT22;16051;53.024;8.630;2023-02-22T23:03:16;8.30;99.90
17938;DHT22;16051;53.024;8.630;2023-02-22T23:07:19;8.30;99.90
17938;DHT22;16051;53.024;8.630;2023-02-22T23:11:21;8.40;99.90
17938;DHT22;16051;53.024;8.630;2023-02-22T23:15:24;8.30;99.90
17938;DHT22;16051;53.024;8.630;2023-02-22T23:19:26;8.30;99.90
17938;DHT22;16051;53.024;8.630;2023-02-22T23:23:39;8.30;99.90
17938;DHT22;16051;53.024;8.630;2023-02-22T23:27:42;8.30;99.90
17938;DHT22;16051;53.024;8.630;2023-02-22T23:32:01;8.30;99.90
17938;DHT22;16051;53.024;8.630;2023-02-22T23:36:06;8.30;99.90
17938;DHT22;16051;53.024;8.630;2023-02-22T23:40:13;8.30;99.90
17938;DHT22;16051;53.024;8.630;2023-02-22T23:44:36;8.40;99.90
17938;DHT22;16051;53.024;8.630;2023-02-22T23:48:41;8.30;99.90
17938;DHT22;16051;53.024;8.630;2023-02-22T23:52:46;8.40;99.90
17938;DHT22;16051;53.024;8.630;2023-02-22T23:56:51;8.30;99.90
